Time;durP1;ratioP1;P1;durP2;ratioP2;P2;SDS_P1;SDS_P2;PMS_P1;PMS_P2;Temp;Humidity;BMP_temperature;BMP_pressure;BME280_temperature;BME280_humidity;BME280_pressure;Samples;Min_cycle;Max_cycle;Signal;HPM_P1;HPM_P2
2021/09/06 00:02:07;;;;;;;28.40;16.52;;;16.60;99.90;;;;;;5063788;28;20094;-72
2021/09/06 00:04:36;;;;;;;27.30;16.80;;;16.60;99.90;;;;;;5067319;28;20083;-72
2021/09/06 00:07:03;;;;;;;25.08;16.88;;;16.50;99.90;;;;;;5066010;28;20135;-72
2021/09/06 00:09:32;;;;;;;32.55;17.25;;;16.50;99.90;;;;;;5062042;28;20484;-72
2021/09/06 00:11:59;;;;;;;27.15;17.90;;;16.50;99.90;;;;;;5065160;28;20052;-72
2021/09/06 00:14:26;;;;;;;29.63;18.13;;;16.40;99.90;;;;;;5066103;28;20136;-72
2021/09/06 00:16:53;;;;;;;27.25;16.80;;;16.40;99.90;;;;;;5064035;28;20047;-72
2021/09/06 00:19:21;;;;;;;30.13;17.60;;;16.40;99.90;;;;;;5062226;28;20044;-72
2021/09/06 00:21:49;;;;;;;25.75;17.00;;;16.50;99.90;;;;;;5061933;28;20047;-72
2021/09/06 00:24:16;;;;;;;27.85;17.15;;;16.50;99.90;;;;;;5063795;28;20086;-72
2021/09/06 00:26:43;;;;;;;27.83;17.58;;;16.50;99.90;;;;;;5067483;28;20048;-72
2021/09/06 00:29:10;;;;;;;27.95;17.83;;;16.40;99.90;;;;;;5065721;28;20105;-72
2021/09/06 00:31:37;;;;;;;30.52;16.77;;;16.30;99.90;;;;;;5064907;28;20056;-72
2021/09/06 00:34:04;;;;;;;24.48;15.45;;;16.30;99.90;;;;;;5062424;28;21273;-72
2021/09/06 00:36:31;;;;;;;27.83;17.08;;;16.40;99.90;;;;;;5064672;28;20102;-72
2021/09/06 00:38:59;;;;;;;26.80;16.85;;;16.30;99.90;;;;;;5065389;28;20504;-72
2021/09/06 00:41:26;;;;;;;26.13;16.08;;;16.40;99.90;;;;;;5064572;28;20051;-72
2021/09/06 00:43:54;;;;;;;26.92;17.13;;;16.20;99.90;;;;;;5064890;28;20041;-72
2021/09/06 00:46:22;;;;;;;30.00;18.25;;;16.10;99.90;;;;;;5063760;28;20091;-72
2021/09/06 00:48:50;;;;;;;27.13;16.77;;;16.10;99.90;;;;;;5061304;28;20516;-72
2021/09/06 00:51:18;;;;;;;25.55;15.48;;;16.10;99.90;;;;;;5065127;28;20503;-72
2021/09/06 00:53:45;;;;;;;28.02;16.20;;;16.10;99.90;;;;;;5064869;28;20052;-72
2021/09/06 00:56:13;;;;;;;25.98;16.88;;;16.00;99.90;;;;;;5063735;28;20535;-72
2021/09/06 00:58:40;;;;;;;28.73;17.20;;;15.90;99.90;;;;;;5062375;28;20109;-72
2021/09/06 01:01:07;;;;;;;28.60;17.45;;;15.90;99.90;;;;;;5061849;28;20121;-72
2021/09/06 01:03:34;;;;;;;26.05;17.02;;;15.90;99.90;;;;;;5063469;28;20059;-72
2021/09/06 01:06:01;;;;;;;27.88;15.48;;;15.90;99.90;;;;;;5063014;28;20377;-72
2021/09/06 01:08:29;;;;;;;25.08;15.70;;;15.90;99.90;;;;;;5061400;28;20164;-72
2021/09/06 01:10:56;;;;;;;27.85;16.58;;;15.90;99.90;;;;;;5061925;28;20108;-71
2021/09/06 01:13:24;;;;;;;27.85;16.65;;;16.00;99.90;;;;;;5060498;28;20101;-72
2021/09/06 01:15:51;;;;;;;24.52;15.57;;;15.90;99.90;;;;;;5061286;28;20135;-72
2021/09/06 01:18:19;;;;;;;28.80;17.55;;;15.80;99.90;;;;;;5061611;28;20520;-72
2021/09/06 01:20:46;;;;;;;29.98;17.23;;;15.90;99.90;;;;;;5061821;28;20055;-72
2021/09/06 01:23:13;;;;;;;27.02;16.73;;;15.90;99.90;;;;;;5063858;28;20076;-72
2021/09/06 01:25:40;;;;;;;28.40;17.73;;;15.80;99.90;;;;;;5066241;28;20101;-72
2021/09/06 01:28:09;;;;;;;26.45;17.15;;;15.80;99.90;;;;;;5065766;28;20044;-72
2021/09/06 01:30:37;;;;;;;25.58;16.30;;;15.80;99.90;;;;;;5068508;28;20458;-72
2021/09/06 01:33:04;;;;;;;26.05;16.30;;;15.70;99.90;;;;;;5067957;28;20594;-72
2021/09/06 01:35:31;;;;;;;26.05;16.38;;;15.60;99.90;;;;;;5069451;28;20551;-72
2021/09/06 01:37:58;;;;;;;35.00;18.55;;;15.60;99.90;;;;;;5069206;28;20067;-72
2021/09/06 01:40:26;;;;;;;28.55;17.05;;;15.60;99.90;;;;;;5064008;28;20060;-72
2021/09/06 01:42:53;;;;;;;25.67;16.45;;;15.50;99.90;;;;;;5065975;28;20726;-72
2021/09/06 01:45:22;;;;;;;26.48;16.50;;;15.60;99.90;;;;;;5067161;28;20052;-72
2021/09/06 01:47:49;;;;;;;22.48;15.07;;;15.60;99.90;;;;;;5066430;28;20188;-72
2021/09/06 01:50:16;;;;;;;27.75;16.90;;;15.60;99.90;;;;;;5065969;28;20522;-72
2021/09/06 01:52:43;;;;;;;26.95;18.30;;;15.50;99.90;;;;;;5067901;28;20105;-72
2021/09/06 01:55:10;;;;;;;28.67;18.05;;;15.50;99.90;;;;;;5065141;28;20050;-72
2021/09/06 01:57:37;;;;;;;28.10;16.35;;;15.50;99.90;;;;;;5065483;28;20105;-72
2021/09/06 02:00:06;;;;;;;26.15;15.52;;;15.50;99.90;;;;;;5065780;28;20087;-72
2021/09/06 02:02:34;;;;;;;28.17;17.10;;;15.50;99.90;;;;;;5064203;28;20113;-72
2021/09/06 02:05:01;;;;;;;26.17;16.08;;;15.40;99.90;;;;;;5065501;28;20048;-72
2021/09/06 02:07:28;;;;;;;27.73;16.80;;;15.40;99.90;;;;;;5062018;28;20087;-72
2021/09/06 02:09:56;;;;;;;29.42;17.27;;;15.30;99.90;;;;;;5067260;28;20052;-72
2021/09/06 02:12:23;;;;;;;30.42;18.67;;;15.40;99.90;;;;;;5063200;28;20062;-72
2021/09/06 02:14:50;;;;;;;35.25;19.80;;;15.30;99.90;;;;;;5064376;28;20136;-72
2021/09/06 02:17:17;;;;;;;31.95;18.10;;;15.30;99.90;;;;;;5062687;28;20095;-72
2021/09/06 02:19:45;;;;;;;27.65;17.35;;;15.20;99.90;;;;;;5063924;28;20048;-72
2021/09/06 02:22:12;;;;;;;28.42;17.35;;;15.20;99.90;;;;;;5066403;28;20055;-72
2021/09/06 02:24:39;;;;;;;26.50;16.77;;;15.10;99.90;;;;;;5065840;28;20586;-72
2021/09/06 02:27:06;;;;;;;28.08;17.27;;;15.20;99.90;;;;;;5065464;28;20667;-72
2021/09/06 02:29:33;;;;;;;29.42;17.48;;;15.20;99.90;;;;;;5066020;28;20071;-71
2021/09/06 02:32:00;;;;;;;28.20;16.65;;;15.20;99.90;;;;;;5065480;28;20075;-72
2021/09/06 02:34:27;;;;;;;32.92;17.00;;;15.00;99.90;;;;;;5065618;28;20125;-71
2021/09/06 02:36:55;;;;;;;28.25;18.42;;;15.00;99.90;;;;;;5067155;28;20076;-71
2021/09/06 02:39:22;;;;;;;23.80;15.00;;;14.90;99.90;;;;;;5064050;28;20091;-71
2021/09/06 02:41:49;;;;;;;25.85;15.18;;;14.90;99.90;;;;;;5063573;28;20597;-71
2021/09/06 02:44:16;;;;;;;26.40;15.45;;;15.00;99.90;;;;;;5067969;28;20076;-72
2021/09/06 02:46:43;;;;;;;29.50;17.95;;;14.90;99.90;;;;;;5065793;28;20150;-72
2021/09/06 02:49:10;;;;;;;24.15;15.45;;;14.90;99.90;;;;;;5064621;28;20143;-71
2021/09/06 02:51:37;;;;;;;29.60;15.02;;;14.90;99.90;;;;;;5066339;28;20204;-72
2021/09/06 02:54:05;;;;;;;26.80;15.85;;;14.90;99.90;;;;;;5064005;28;20467;-71
2021/09/06 02:56:32;;;;;;;23.58;14.80;;;14.90;99.90;;;;;;5063262;28;20052;-71
2021/09/06 02:58:59;;;;;;;23.70;14.98;;;14.90;99.90;;;;;;5061227;28;20125;-72
2021/09/06 03:01:26;;;;;;;20.80;14.48;;;14.80;99.90;;;;;;5064002;28;20135;-72
2021/09/06 03:03:53;;;;;;;26.27;14.60;;;14.80;99.90;;;;;;5064995;28;20135;-72
2021/09/06 03:06:20;;;;;;;21.73;13.43;;;14.80;99.90;;;;;;5064544;28;20123;-71
2021/09/06 03:08:47;;;;;;;23.77;14.68;;;14.90;99.90;;;;;;5065413;28;20051;-71
2021/09/06 03:11:22;;;;;;;23.58;13.43;;;14.80;99.90;;;;;;5065511;28;20047;-71
2021/09/06 03:13:49;;;;;;;21.70;12.73;;;14.80;99.90;;;;;;5070329;28;20067;-71
2021/09/06 03:16:15;;;;;;;23.67;14.27;;;14.80;99.90;;;;;;5069994;28;20527;-72
2021/09/06 03:18:42;;;;;;;25.02;14.02;;;14.80;99.90;;;;;;5071197;28;20500;-72
2021/09/06 03:21:10;;;;;;;21.70;14.18;;;14.70;99.90;;;;;;5067424;28;20995;-72
2021/09/06 03:23:37;;;;;;;26.75;13.43;;;14.60;99.90;;;;;;5067726;28;20414;-71
2021/09/06 03:26:04;;;;;;;22.50;14.00;;;14.70;99.90;;;;;;5067387;28;20507;-72
2021/09/06 03:28:32;;;;;;;24.00;14.60;;;14.60;99.90;;;;;;5070473;28;20145;-72
2021/09/06 03:30:59;;;;;;;22.48;13.85;;;14.50;99.90;;;;;;5070841;28;20051;-72
2021/09/06 03:33:26;;;;;;;23.67;14.25;;;14.50;99.90;;;;;;5069023;28;20060;-72
2021/09/06 03:35:53;;;;;;;23.13;14.20;;;14.50;99.90;;;;;;5067886;28;20044;-72
2021/09/06 03:38:20;;;;;;;24.33;14.23;;;14.40;99.90;;;;;;5064735;28;20524;-72
2021/09/06 03:40:47;;;;;;;23.60;14.02;;;14.40;99.90;;;;;;5065616;28;20050;-72
2021/09/06 03:43:14;;;;;;;24.67;13.75;;;14.30;99.90;;;;;;5067648;28;20272;-71
2021/09/06 03:45:42;;;;;;;20.70;12.85;;;14.30;99.90;;;;;;5066814;28;20079;-71
2021/09/06 03:48:09;;;;;;;25.23;14.35;;;14.30;99.90;;;;;;5067464;28;20466;-71
2021/09/06 03:50:36;;;;;;;22.58;13.20;;;14.40;99.90;;;;;;5068930;28;20078;-71
2021/09/06 03:53:03;;;;;;;23.60;13.48;;;14.30;99.90;;;;;;5066552;28;20130;-71
2021/09/06 03:55:30;;;;;;;21.98;14.43;;;14.40;99.90;;;;;;5066896;28;20048;-72
2021/09/06 03:57:57;;;;;;;26.27;13.77;;;14.30;99.90;;;;;;5070028;28;20394;-72
2021/09/06 04:00:24;;;;;;;24.92;15.27;;;14.30;99.90;;;;;;5069654;28;20084;-71
2021/09/06 04:02:53;;;;;;;29.38;16.35;;;14.20;99.90;;;;;;5071834;28;20444;-72
2021/09/06 04:05:20;;;;;;;25.08;14.70;;;14.20;99.90;;;;;;5067489;28;20140;-71
2021/09/06 04:07:47;;;;;;;26.60;14.82;;;14.10;99.90;;;;;;5067711;28;20080;-71
2021/09/06 04:10:14;;;;;;;24.38;14.45;;;14.00;99.90;;;;;;5069272;28;20380;-72
2021/09/06 04:12:41;;;;;;;22.33;14.35;;;13.90;99.90;;;;;;5067499;28;20458;-71
2021/09/06 04:15:10;;;;;;;22.83;13.60;;;14.00;99.90;;;;;;5066096;28;20051;-72
2021/09/06 04:17:37;;;;;;;21.17;13.68;;;14.10;99.90;;;;;;5067769;28;20066;-72
2021/09/06 04:20:06;;;;;;;23.15;14.15;;;14.10;99.90;;;;;;5068961;28;20527;-72
2021/09/06 04:22:33;;;;;;;22.15;14.18;;;14.00;99.90;;;;;;5067999;28;20450;-72
2021/09/06 04:25:02;;;;;;;22.58;13.75;;;14.00;99.90;;;;;;5067560;28;20117;-72
2021/09/06 04:27:29;;;;;;;28.13;14.95;;;14.10;99.90;;;;;;5067145;28;20063;-72
2021/09/06 04:29:56;;;;;;;22.42;14.25;;;14.00;99.90;;;;;;5066749;28;20117;-72
2021/09/06 04:32:23;;;;;;;20.52;13.48;;;13.90;99.90;;;;;;5067846;28;20457;-72
2021/09/06 04:34:50;;;;;;;23.90;13.50;;;13.90;99.90;;;;;;5068455;28;20051;-71
2021/09/06 04:37:18;;;;;;;22.88;12.98;;;13.90;99.90;;;;;;5067381;28;20072;-72
2021/09/06 04:39:45;;;;;;;23.77;13.43;;;14.00;99.90;;;;;;5066127;28;20090;-71
2021/09/06 04:42:12;;;;;;;19.90;13.30;;;14.00;99.90;;;;;;5066014;28;20504;-72
2021/09/06 04:44:39;;;;;;;22.00;14.30;;;14.00;99.90;;;;;;5067486;28;20139;-71
2021/09/06 04:47:06;;;;;;;21.30;13.82;;;14.00;99.90;;;;;;5065923;28;20087;-72
2021/09/06 04:49:33;;;;;;;19.58;12.43;;;14.10;99.90;;;;;;5066661;28;20052;-71
2021/09/06 04:52:00;;;;;;;20.83;13.07;;;14.10;99.90;;;;;;5068741;28;20507;-71
2021/09/06 04:54:32;;;;;;;23.73;14.55;;;14.20;99.90;;;;;;5064202;28;20145;-71
2021/09/06 04:56:59;;;;;;;25.05;14.48;;;14.20;99.90;;;;;;5066437;28;20102;-71
2021/09/06 04:59:26;;;;;;;26.25;15.57;;;14.20;99.90;;;;;;5065151;28;20176;-71
2021/09/06 05:01:53;;;;;;;33.17;18.33;;;14.30;99.90;;;;;;5068240;28;20044;-71
2021/09/06 05:04:20;;;;;;;33.92;17.58;;;14.30;99.90;;;;;;5069549;28;20082;-71
2021/09/06 05:06:47;;;;;;;42.08;21.20;;;14.40;99.90;;;;;;5065316;28;20392;-71
2021/09/06 05:09:14;;;;;;;33.63;20.58;;;14.40;99.90;;;;;;5065646;28;20047;-71
2021/09/06 05:11:42;;;;;;;34.30;19.27;;;14.40;99.90;;;;;;5066578;28;20102;-72
2021/09/06 05:14:09;;;;;;;39.17;21.92;;;14.40;99.90;;;;;;5066312;28;21449;-71
2021/09/06 05:16:36;;;;;;;37.03;19.67;;;14.50;99.90;;;;;;5065675;28;20474;-72
2021/09/06 05:19:03;;;;;;;35.88;19.58;;;14.50;99.90;;;;;;5065330;28;20106;-71
2021/09/06 05:21:30;;;;;;;38.33;19.75;;;14.50;99.90;;;;;;5065963;28;20052;-71
2021/09/06 05:23:58;;;;;;;39.28;21.55;;;14.60;99.90;;;;;;5065941;28;20079;-71
2021/09/06 05:26:25;;;;;;;37.65;22.17;;;14.60;99.90;;;;;;5065874;28;20064;-71
2021/09/06 05:28:53;;;;;;;39.45;22.20;;;14.50;99.90;;;;;;5067024;28;20135;-71
2021/09/06 05:31:20;;;;;;;36.90;20.13;;;14.60;99.90;;;;;;5066917;28;20044;-72
2021/09/06 05:33:47;;;;;;;36.28;20.42;;;14.60;99.90;;;;;;5063720;28;20127;-71
2021/09/06 05:36:15;;;;;;;37.97;20.20;;;14.70;99.90;;;;;;5064253;28;20087;-71
2021/09/06 05:38:42;;;;;;;32.92;19.23;;;14.70;99.90;;;;;;5065760;28;20175;-71
2021/09/06 05:41:10;;;;;;;38.15;19.60;;;14.80;99.90;;;;;;5064909;28;20075;-72
2021/09/06 05:43:37;;;;;;;30.60;19.02;;;14.90;99.90;;;;;;5065276;28;20087;-72
2021/09/06 05:46:05;;;;;;;30.83;18.67;;;15.00;99.90;;;;;;5066983;28;20048;-71
2021/09/06 05:48:32;;;;;;;36.95;21.05;;;15.10;99.90;;;;;;5065948;28;20083;-71
2021/09/06 05:50:59;;;;;;;34.03;20.77;;;15.00;99.90;;;;;;5066413;28;20044;-71
2021/09/06 05:53:26;;;;;;;33.35;18.55;;;15.00;99.90;;;;;;5067986;28;20059;-71
2021/09/06 05:55:53;;;;;;;36.25;20.98;;;15.00;99.90;;;;;;5067350;28;20538;-72
2021/09/06 05:58:20;;;;;;;32.35;18.52;;;15.00;99.90;;;;;;5067012;28;20106;-71
2021/09/06 06:00:47;;;;;;;35.13;20.25;;;15.20;99.90;;;;;;5067247;28;20044;-71
2021/09/06 06:03:15;;;;;;;39.78;20.95;;;15.20;99.90;;;;;;5067370;28;20534;-72
2021/09/06 06:05:42;;;;;;;39.22;20.92;;;15.30;99.90;;;;;;5067514;28;20487;-71
2021/09/06 06:08:09;;;;;;;38.35;21.20;;;15.30;99.90;;;;;;5068043;28;20048;-72
2021/09/06 06:10:36;;;;;;;35.17;21.45;;;15.40;99.90;;;;;;5064889;28;20370;-71
2021/09/06 06:13:03;;;;;;;34.35;20.05;;;15.40;99.90;;;;;;5065154;28;20099;-72
2021/09/06 06:15:30;;;;;;;37.67;20.42;;;15.30;99.90;;;;;;5066330;28;20129;-71
2021/09/06 06:17:57;;;;;;;31.50;19.23;;;15.40;99.90;;;;;;5065872;28;20075;-71
2021/09/06 06:20:25;;;;;;;30.15;19.17;;;15.40;99.90;;;;;;5065106;28;20052;-72
2021/09/06 06:22:52;;;;;;;31.77;19.27;;;15.50;99.90;;;;;;5063679;28;20420;-72
2021/09/06 06:25:19;;;;;;;33.47;19.58;;;15.60;99.90;;;;;;5064831;28;21210;-72
2021/09/06 06:27:46;;;;;;;36.10;20.30;;;15.70;99.90;;;;;;5063858;28;20143;-71
2021/09/06 06:30:14;;;;;;;32.50;19.65;;;15.70;99.90;;;;;;5065025;28;20083;-72
2021/09/06 06:32:41;;;;;;;32.40;19.38;;;15.70;99.90;;;;;;5066998;28;20412;-72
2021/09/06 06:35:09;;;;;;;32.72;19.98;;;15.80;99.90;;;;;;5066143;28;20076;-72
2021/09/06 06:37:37;;;;;;;36.15;21.55;;;15.90;99.90;;;;;;5062894;28;20105;-72
2021/09/06 06:40:05;;;;;;;34.58;20.95;;;15.90;99.90;;;;;;5066112;28;20075;-72
2021/09/06 06:42:32;;;;;;;34.97;20.30;;;15.90;99.90;;;;;;5063346;28;20051;-72
2021/09/06 06:44:59;;;;;;;40.65;20.50;;;15.90;99.90;;;;;;5063241;28;20121;-72
2021/09/06 06:47:26;;;;;;;30.35;20.25;;;16.00;99.90;;;;;;5064579;28;20094;-72
2021/09/06 06:49:53;;;;;;;36.17;20.85;;;15.90;99.90;;;;;;5065564;28;20471;-72
2021/09/06 06:52:20;;;;;;;38.50;21.98;;;16.10;99.90;;;;;;5066189;28;20098;-72
2021/09/06 06:54:48;;;;;;;36.97;22.75;;;16.20;99.90;;;;;;5067385;28;20048;-72
2021/09/06 06:57:15;;;;;;;32.92;19.63;;;16.30;99.90;;;;;;5065764;28;20094;-72
2021/09/06 06:59:42;;;;;;;39.90;21.48;;;16.40;99.90;;;;;;5061937;28;20162;-73
2021/09/06 07:02:09;;;;;;;32.38;19.67;;;16.50;99.90;;;;;;5063387;28;20109;-72
2021/09/06 07:04:36;;;;;;;36.75;20.38;;;16.50;99.90;;;;;;5065198;28;20051;-72
2021/09/06 07:07:04;;;;;;;33.03;19.75;;;16.50;99.90;;;;;;5064729;28;20101;-72
2021/09/06 07:09:30;;;;;;;39.20;21.48;;;16.50;99.90;;;;;;5064411;28;20049;-72
2021/09/06 07:12:00;;;;;;;35.30;20.83;;;16.40;99.90;;;;;;5064392;28;20044;-72
2021/09/06 07:14:27;;;;;;;42.05;20.63;;;16.40;99.90;;;;;;5066117;28;20050;-72
2021/09/06 07:16:54;;;;;;;36.40;21.00;;;16.50;99.90;;;;;;5066050;28;20091;-72
2021/09/06 07:19:21;;;;;;;31.10;19.77;;;16.60;99.90;;;;;;5064069;28;20052;-72
2021/09/06 07:21:48;;;;;;;36.20;22.23;;;16.80;99.90;;;;;;5065856;28;20301;-72
2021/09/06 07:24:15;;;;;;;33.40;21.20;;;16.80;99.90;;;;;;5064167;28;20080;-72
2021/09/06 07:26:42;;;;;;;35.08;20.80;;;16.90;99.90;;;;;;5064788;28;20087;-72
2021/09/06 07:29:10;;;;;;;30.70;18.98;;;17.00;99.90;;;;;;5064844;28;20079;-72
2021/09/06 07:31:37;;;;;;;38.38;19.90;;;17.20;99.90;;;;;;5063290;28;20055;-72
2021/09/06 07:34:04;;;;;;;35.33;19.63;;;17.40;99.90;;;;;;5065492;28;20117;-71
2021/09/06 07:36:32;;;;;;;33.58;19.80;;;17.40;99.90;;;;;;5058448;28;21395;-71
2021/09/06 07:38:59;;;;;;;37.15;19.73;;;17.60;99.90;;;;;;5058862;28;20048;-72
2021/09/06 07:41:26;;;;;;;31.02;20.60;;;17.70;99.90;;;;;;5062767;28;20053;-72
2021/09/06 07:43:53;;;;;;;32.95;18.90;;;17.70;99.90;;;;;;5063996;28;20040;-72
2021/09/06 07:46:22;;;;;;;28.73;19.30;;;17.90;99.90;;;;;;5064775;28;20093;-72
2021/09/06 07:48:49;;;;;;;33.53;19.52;;;18.10;99.90;;;;;;5061181;28;20040;-72
2021/09/06 07:51:16;;;;;;;31.95;22.02;;;18.30;99.90;;;;;;5057914;28;20045;-72
2021/09/06 07:53:44;;;;;;;35.00;20.02;;;18.40;99.90;;;;;;5059026;28;20043;-72
2021/09/06 07:56:12;;;;;;;30.40;19.10;;;18.50;99.90;;;;;;5057492;28;20044;-72
2021/09/06 07:58:38;;;;;;;31.45;19.17;;;18.60;99.90;;;;;;5058140;28;20803;-72
2021/09/06 08:01:06;;;;;;;32.10;19.45;;;18.70;99.90;;;;;;5060744;28;20132;-72
2021/09/06 08:03:34;;;;;;;28.05;18.23;;;18.90;99.90;;;;;;5062314;28;20093;-72
2021/09/06 08:06:01;;;;;;;29.17;16.95;;;19.20;99.90;;;;;;5062363;28;20500;-71
2021/09/06 08:08:28;;;;;;;26.50;16.52;;;19.50;99.90;;;;;;5058378;28;20056;-72
2021/09/06 08:10:55;;;;;;;24.85;15.27;;;19.90;99.90;;;;;;5058498;28;20469;-72
2021/09/06 08:13:22;;;;;;;21.23;13.20;;;19.90;99.90;;;;;;5057211;28;20058;-72
2021/09/06 08:15:49;;;;;;;23.02;14.07;;;20.40;99.90;;;;;;5061843;28;20052;-72
2021/09/06 08:18:17;;;;;;;20.05;12.63;;;20.60;99.90;;;;;;5063950;28;20044;-74
2021/09/06 08:20:45;;;;;;;19.55;11.75;;;20.90;99.90;;;;;;5065500;28;20797;-71
2021/09/06 08:23:12;;;;;;;18.98;11.80;;;21.50;99.90;;;;;;5064222;28;20116;-72
2021/09/06 08:25:39;;;;;;;20.95;11.10;;;21.60;99.90;;;;;;5064870;28;20102;-72
2021/09/06 08:28:06;;;;;;;15.57;10.93;;;22.40;99.90;;;;;;5065863;28;20083;-72
2021/09/06 08:30:33;;;;;;;18.60;11.02;;;22.50;99.90;;;;;;5066288;28;20094;-72
2021/09/06 08:33:02;;;;;;;16.98;10.52;;;23.30;99.90;;;;;;5065361;28;20044;-72
2021/09/06 08:35:29;;;;;;;15.68;10.90;;;24.40;99.90;;;;;;5050538;28;20227;-72
2021/09/06 08:37:58;;;;;;;15.88;10.95;;;25.50;99.90;;;;;;5049061;28;20048;-73
2021/09/06 08:40:25;;;;;;;16.77;11.00;;;26.50;99.90;;;;;;5055986;28;20522;-73
2021/09/06 08:42:52;;;;;;;16.00;11.25;;;27.20;99.90;;;;;;5061775;28;20169;-72
2021/09/06 08:45:19;;;;;;;15.05;10.73;;;27.50;99.90;;;;;;5058240;28;20040;-72
2021/09/06 08:47:47;;;;;;;13.13;10.05;;;28.40;99.90;;;;;;5059744;28;20051;-73
2021/09/06 08:50:14;;;;;;;17.30;10.45;;;29.00;99.90;;;;;;5062517;28;20101;-72
2021/09/06 08:52:42;;;;;;;14.60;11.27;;;29.40;99.90;;;;;;5064127;28;20476;-73
2021/09/06 08:55:12;;;;;;;18.40;10.77;;;30.20;99.90;;;;;;5064726;28;20044;-73
2021/09/06 08:57:39;;;;;;;12.95;10.65;;;30.70;99.90;;;;;;5066146;28;20114;-72
2021/09/06 09:00:07;;;;;;;13.52;9.77;;;30.90;99.90;;;;;;5066114;28;20052;-73
2021/09/06 09:02:35;;;;;;;17.65;10.02;;;30.90;99.90;;;;;;5064552;28;20135;-73
2021/09/06 09:05:04;;;;;;;13.38;10.20;;;31.40;99.90;;;;;;5064739;28;20458;-73
2021/09/06 09:07:32;;;;;;;13.93;10.13;;;31.30;99.90;;;;;;5060541;28;20132;-73
2021/09/06 09:09:59;;;;;;;14.82;10.57;;;31.70;99.90;;;;;;5049866;28;20045;-72
2021/09/06 09:12:29;;;;;;;12.45;9.57;;;31.90;99.90;;;;;;5059464;28;20072;-73
2021/09/06 09:14:58;;;;;;;15.55;10.10;;;31.80;99.90;;;;;;5063599;28;20063;-73
2021/09/06 09:17:26;;;;;;;13.57;10.32;;;32.50;99.90;;;;;;5061356;28;20048;-72
2021/09/06 09:19:54;;;;;;;13.48;10.82;;;32.90;99.90;;;;;;5065972;28;20153;-72
2021/09/06 09:22:31;;;;;;;11.57;9.75;;;33.40;99.10;;;;;;5061077;28;20048;-73
2021/09/06 09:24:59;;;;;;;13.02;9.82;;;33.60;98.40;;;;;;5064124;28;20080;-73
2021/09/06 09:27:36;;;;;;;11.82;9.43;;;33.40;98.40;;;;;;5059962;28;20052;-73
2021/09/06 09:30:05;;;;;;;11.05;9.07;;;33.40;96.40;;;;;;5064157;28;20148;-73
2021/09/06 09:32:35;;;;;;;11.13;9.23;;;33.00;96.00;;;;;;5061030;28;20113;-72
2021/09/06 09:35:04;;;;;;;12.77;9.38;;;32.40;95.80;;;;;;5064169;28;20078;-73
2021/09/06 09:37:32;;;;;;;12.02;9.63;;;32.90;95.70;;;;;;5060565;28;20048;-73
2021/09/06 09:40:01;;;;;;;12.70;8.93;;;32.80;95.90;;;;;;5061056;28;20140;-73
2021/09/06 09:42:28;;;;;;;12.80;8.82;;;32.30;96.90;;;;;;5066648;28;20601;-73
2021/09/06 09:44:58;;;;;;;11.02;8.95;;;33.60;96.70;;;;;;5063312;28;20447;-73
2021/09/06 09:47:26;;;;;;;11.95;9.30;;;33.70;95.30;;;;;;5063670;28;20044;-73
2021/09/06 09:49:55;;;;;;;14.35;8.82;;;34.10;94.60;;;;;;5061381;28;20044;-72
2021/09/06 09:52:24;;;;;;;11.15;8.90;;;34.50;93.70;;;;;;5061083;28;20139;-73
2021/09/06 09:54:53;;;;;;;10.32;8.80;;;35.00;92.50;;;;;;5062020;28;21524;-73
2021/09/06 09:57:21;;;;;;;10.98;8.57;;;35.50;92.50;;;;;;5058009;28;20737;-72
2021/09/06 09:59:48;;;;;;;10.80;8.93;;;35.80;91.50;;;;;;5056700;28;20048;-72
2021/09/06 10:02:20;;;;;;;11.02;9.05;;;36.70;90.50;;;;;;5060495;28;20052;-72
2021/09/06 10:04:51;;;;;;;21.30;10.02;;;37.00;89.00;;;;;;5060533;28;20108;-72
2021/09/06 10:07:19;;;;;;;12.93;9.20;;;36.70;86.50;;;;;;5060957;28;20048;-72
2021/09/06 10:09:48;;;;;;;9.73;8.18;;;35.20;88.90;;;;;;5060423;28;20044;-73
2021/09/06 10:12:20;;;;;;;12.07;8.45;;;35.80;86.90;;;;;;5066796;28;20079;-72
2021/09/06 10:14:53;;;;;;;10.93;8.60;;;35.90;86.40;;;;;;5066276;28;20459;-72
2021/09/06 10:17:34;;;;;;;12.13;8.07;;;36.60;86.10;;;;;;5065777;28;20040;-72
2021/09/06 10:20:16;;;;;;;10.32;8.60;;;37.00;82.10;;;;;;5068909;28;20098;-72
2021/09/06 10:22:45;;;;;;;10.45;8.30;;;36.30;83.20;;;;;;5070115;28;20048;-72
2021/09/06 10:25:18;;;;;;;11.13;8.15;;;36.80;81.70;;;;;;5067965;28;20123;-72
2021/09/06 10:27:52;;;;;;;11.50;7.90;;;36.80;81.90;;;;;;5068419;28;20140;-73
2021/09/06 10:30:20;;;;;;;10.18;8.23;;;37.40;80.90;;;;;;5068042;28;20449;-72
2021/09/06 10:32:50;;;;;;;11.25;8.90;;;37.30;80.40;;;;;;5065715;28;20817;-72
2021/09/06 10:35:21;;;;;;;10.45;7.95;;;38.00;79.10;;;;;;5069515;28;20132;-72
2021/09/06 10:38:01;;;;;;;11.07;8.85;;;37.50;77.20;;;;;;5069562;28;20983;-72
2021/09/06 10:40:30;;;;;;;10.80;8.38;;;37.30;75.80;;;;;;5068249;28;20128;-72
2021/09/06 10:42:58;;;;;;;11.10;8.10;;;36.60;77.90;;;;;;5066684;28;20113;-72
2021/09/06 10:45:27;;;;;;;12.65;8.48;;;35.40;77.80;;;;;;5067423;28;20052;-72
2021/09/06 10:48:04;;;;;;;11.15;8.00;;;35.40;79.60;;;;;;5065070;28;20048;-74
2021/09/06 10:50:35;;;;;;;10.05;7.57;;;35.00;77.70;;;;;;5067143;28;20052;-72
2021/09/06 10:53:05;;;;;;;10.52;7.90;;;34.60;76.70;;;;;;5064453;28;20051;-72
2021/09/06 10:55:32;;;;;;;10.48;7.65;;;34.90;76.70;;;;;;5064774;28;20137;-72
2021/09/06 10:58:00;;;;;;;11.70;7.47;;;34.50;76.60;;;;;;5066547;28;20135;-72
2021/09/06 11:00:27;;;;;;;10.88;7.05;;;34.90;77.60;;;;;;5063597;28;20504;-73
2021/09/06 11:02:55;;;;;;;12.68;7.40;;;34.90;74.40;;;;;;5066934;28;20056;-73
2021/09/06 11:05:24;;;;;;;9.60;7.05;;;35.30;74.40;;;;;;5061176;28;20040;-73
2021/09/06 11:07:52;;;;;;;14.93;8.15;;;35.20;73.80;;;;;;5063421;28;20072;-72
2021/09/06 11:10:22;;;;;;;15.80;7.82;;;35.60;74.80;;;;;;5063901;28;20109;-72
2021/09/06 11:12:54;;;;;;;11.77;7.40;;;35.60;75.00;;;;;;5062583;28;20048;-73
2021/09/06 11:15:26;;;;;;;11.80;7.22;;;35.90;74.60;;;;;;5060804;28;20052;-73
2021/09/06 11:17:57;;;;;;;11.25;7.53;;;36.70;72.80;;;;;;5062638;28;20056;-72
2021/09/06 11:20:26;;;;;;;9.68;7.60;;;37.60;73.10;;;;;;5063166;28;20131;-72
2021/09/06 11:23:01;;;;;;;10.00;7.72;;;37.60;71.90;;;;;;5060119;28;20194;-72
2021/09/06 11:25:30;;;;;;;11.38;7.60;;;38.00;71.00;;;;;;5060710;28;20124;-73
2021/09/06 11:28:06;;;;;;;9.63;7.07;;;38.00;70.40;;;;;;5057264;28;20055;-72
2021/09/06 11:30:34;;;;;;;;;;;38.40;70.30;;;;;;5060711;28;20052;-72
2021/09/06 11:33:02;;;;;;;11.18;7.20;;;38.00;68.00;;;;;;5061768;28;19925;-72
2021/09/06 11:35:31;;;;;;;9.15;7.13;;;37.70;68.00;;;;;;5063410;28;20053;-72
2021/09/06 11:37:58;;;;;;;13.23;7.95;;;38.00;70.20;;;;;;5064744;28;20131;-72
2021/09/06 11:40:26;;;;;;;9.20;6.95;;;38.60;69.30;;;;;;5061911;28;20129;-72
2021/09/06 11:42:53;;;;;;;13.88;7.72;;;38.00;68.30;;;;;;5063888;28;20051;-73
2021/09/06 11:45:21;;;;;;;9.55;7.50;;;37.80;68.20;;;;;;5064387;28;20439;-73
2021/09/06 11:47:49;;;;;;;10.05;8.00;;;38.10;68.50;;;;;;5064000;28;20048;-73
2021/09/06 11:50:20;;;;;;;10.48;7.35;;;37.80;68.20;;;;;;5063536;28;20135;-72
2021/09/06 11:52:59;;;;;;;10.98;6.50;;;38.70;67.50;;;;;;5063369;28;20406;-72
2021/09/06 11:55:26;;;;;;;8.60;7.03;;;39.20;65.10;;;;;;5063198;28;20496;-72
2021/09/06 11:57:53;;;;;;;9.63;6.65;;;39.40;63.70;;;;;;5062579;28;20113;-74
2021/09/06 12:00:20;;;;;;;9.45;6.28;;;39.60;63.00;;;;;;5061930;28;20079;-72
2021/09/06 12:02:48;;;;;;;10.20;6.75;;;39.40;62.40;;;;;;5062072;28;20109;-73
2021/09/06 12:05:16;;;;;;;8.90;6.18;;;39.10;62.30;;;;;;5060577;28;20393;-72
2021/09/06 12:07:49;;;;;;;11.80;6.47;;;38.50;61.80;;;;;;5064466;28;20512;-72
2021/09/06 12:10:27;;;;;;;9.07;6.35;;;38.40;62.20;;;;;;5062383;28;20421;-73
2021/09/06 12:12:59;;;;;;;9.70;6.53;;;37.70;61.60;;;;;;5061504;28;20048;-73
2021/09/06 12:15:27;;;;;;;11.48;6.85;;;38.00;63.00;;;;;;5060955;28;20150;-72
2021/09/06 12:18:08;;;;;;;10.25;6.50;;;37.30;61.70;;;;;;5062256;28;20048;-72
2021/09/06 12:20:38;;;;;;;9.98;6.80;;;35.80;62.80;;;;;;5062535;28;20991;-72
2021/09/06 12:23:07;;;;;;;11.10;6.88;;;35.20;63.90;;;;;;5064390;28;20161;-72
2021/09/06 12:25:36;;;;;;;8.02;6.38;;;35.10;64.00;;;;;;5063194;28;20084;-72
2021/09/06 12:28:11;;;;;;;10.10;6.57;;;34.40;67.20;;;;;;5065106;28;20048;-72
2021/09/06 12:30:39;;;;;;;10.82;6.50;;;33.60;66.10;;;;;;5062119;28;20051;-72
2021/09/06 12:33:07;;;;;;;8.98;6.25;;;33.20;68.50;;;;;;5061502;28;20787;-72
2021/09/06 12:35:34;;;;;;;11.02;6.28;;;32.60;70.00;;;;;;5062343;28;20045;-72